sensor_id;sensor_type;location;lat;lon;timestamp;temperature;humidity
67868;SHT31;54672;46.096;14.470;2023-10-09T00:00:13;13.14;87.55
67868;SHT31;54672;46.096;14.470;2023-10-09T00:03:13;13.18;87.39
67868;SHT31;54672;46.096;14.470;2023-10-09T00:05:39;13.06;87.88
67868;SHT31;54672;46.096;14.470;2023-10-09T00:08:14;13.00;88.05
67868;SHT31;54672;46.096;14.470;2023-10-09T00:10:56;12.99;88.02
67868;SHT31;54672;46.096;14.470;2023-10-09T00:13:23;13.00;87.93
67868;SHT31;54672;46.096;14.470;2023-10-09T00:16:12;12.96;88.12
67868;SHT31;54672;46.096;14.470;2023-10-09T00:18:41;12.87;88.28
67868;SHT31;54672;46.096;14.470;2023-10-09T00:21:19;12.83;88.54
67868;SHT31;54672;46.096;14.470;2023-10-09T00:23:46;12.76;88.53
67868;SHT31;54672;46.096;14.470;2023-10-09T00:26:21;12.80;88.59
67868;SHT31;54672;46.096;14.470;2023-10-09T00:28:47;12.80;88.47
67868;SHT31;54672;46.096;14.470;2023-10-09T00:31:15;12.80;88.85
67868;SHT31;54672;46.096;14.470;2023-10-09T00:33:44;12.79;88.48
67868;SHT31;54672;46.096;14.470;2023-10-09T00:36:11;12.83;88.37
67868;SHT31;54672;46.096;14.470;2023-10-09T00:38:39;12.77;88.47
67868;SHT31;54672;46.096;14.470;2023-10-09T00:41:09;12.70;88.81
67868;SHT31;54672;46.096;14.470;2023-10-09T00:43:37;12.55;89.40
67868;SHT31;54672;46.096;14.470;2023-10-09T00:46:04;12.53;89.17
67868;SHT31;54672;46.096;14.470;2023-10-09T00:48:57;12.52;89.36
67868;SHT31;54672;46.096;14.470;2023-10-09T00:51:27;12.49;89.44
67868;SHT31;54672;46.096;14.470;2023-10-09T00:53:59;12.53;89.12
67868;SHT31;54672;46.096;14.470;2023-10-09T00:56:33;12.48;89.40
67868;SHT31;54672;46.096;14.470;2023-10-09T00:59:05;12.50;89.37
67868;SHT31;54672;46.096;14.470;2023-10-09T01:01:38;12.56;89.09
67868;SHT31;54672;46.096;14.470;2023-10-09T01:04:06;12.67;88.78
67868;SHT31;54672;46.096;14.470;2023-10-09T01:06:43;12.67;88.89
67868;SHT31;54672;46.096;14.470;2023-10-09T01:09:14;12.57;89.00
67868;SHT31;54672;46.096;14.470;2023-10-09T01:11:40;12.56;89.26
67868;SHT31;54672;46.096;14.470;2023-10-09T01:14:32;12.52;89.36
67868;SHT31;54672;46.096;14.470;2023-10-09T01:17:02;12.52;89.48
67868;SHT31;54672;46.096;14.470;2023-10-09T01:19:28;12.55;89.39
67868;SHT31;54672;46.096;14.470;2023-10-09T01:21:57;12.52;89.30
67868;SHT31;54672;46.096;14.470;2023-10-09T01:24:42;12.53;89.38
67868;SHT31;54672;46.096;14.470;2023-10-09T01:27:08;12.53;89.30
67868;SHT31;54672;46.096;14.470;2023-10-09T01:29:40;12.55;89.40
67868;SHT31;54672;46.096;14.470;2023-10-09T01:32:07;12.60;89.32
67868;SHT31;54672;46.096;14.470;2023-10-09T01:34:41;12.56;89.31
67868;SHT31;54672;46.096;14.470;2023-10-09T01:37:09;12.49;89.57
67868;SHT31;54672;46.096;14.470;2023-10-09T01:39:45;12.42;89.72
67868;SHT31;54672;46.096;14.470;2023-10-09T01:42:13;12.45;89.82
67868;SHT31;54672;46.096;14.470;2023-10-09T01:44:49;12.66;89.12
67868;SHT31;54672;46.096;14.470;2023-10-09T01:47:14;12.66;88.70
67868;SHT31;54672;46.096;14.470;2023-10-09T01:49:40;12.60;88.77
67868;SHT31;54672;46.096;14.470;2023-10-09T01:52:10;12.50;89.21
67868;SHT31;54672;46.096;14.470;2023-10-09T01:54:42;12.44;89.23
67868;SHT31;54672;46.096;14.470;2023-10-09T01:57:11;12.42;89.83
67868;SHT31;54672;46.096;14.470;2023-10-09T01:59:44;12.39;89.70
67868;SHT31;54672;46.096;14.470;2023-10-09T02:02:16;12.41;90.23
67868;SHT31;54672;46.096;14.470;2023-10-09T02:05:03;12.35;89.64
67868;SHT31;54672;46.096;14.470;2023-10-09T02:07:36;12.31;89.43
67868;SHT31;54672;46.096;14.470;2023-10-09T02:10:31;12.29;89.38
67868;SHT31;54672;46.096;14.470;2023-10-09T02:13:02;12.31;89.82
67868;SHT31;54672;46.096;14.470;2023-10-09T02:15:36;12.32;90.23
67868;SHT31;54672;46.096;14.470;2023-10-09T02:18:14;12.32;90.51
67868;SHT31;54672;46.096;14.470;2023-10-09T02:23:31;12.39;89.57
67868;SHT31;54672;46.096;14.470;2023-10-09T02:26:11;12.32;89.63
67868;SHT31;54672;46.096;14.470;2023-10-09T02:28:45;12.39;90.14
67868;SHT31;54672;46.096;14.470;2023-10-09T02:31:18;12.36;90.08
67868;SHT31;54672;46.096;14.470;2023-10-09T02:33:47;12.34;90.31
67868;SHT31;54672;46.096;14.470;2023-10-09T02:36:15;12.34;90.39
67868;SHT31;54672;46.096;14.470;2023-10-09T02:38:40;12.36;89.96
67868;SHT31;54672;46.096;14.470;2023-10-09T02:41:08;12.36;89.96
67868;SHT31;54672;46.096;14.470;2023-10-09T02:43:39;12.42;90.12
67868;SHT31;54672;46.096;14.470;2023-10-09T02:46:15;12.42;90.39
67868;SHT31;54672;46.096;14.470;2023-10-09T02:48:48;12.36;90.54
67868;SHT31;54672;46.096;14.470;2023-10-09T02:51:21;12.35;90.21
67868;SHT31;54672;46.096;14.470;2023-10-09T02:54:03;12.35;89.77
67868;SHT31;54672;46.096;14.470;2023-10-09T02:56:52;12.36;88.93
67868;SHT31;54672;46.096;14.470;2023-10-09T02:59:34;12.36;89.80
67868;SHT31;54672;46.096;14.470;2023-10-09T03:02:00;12.38;90.24
67868;SHT31;54672;46.096;14.470;2023-10-09T03:04:26;12.42;89.85
67868;SHT31;54672;46.096;14.470;2023-10-09T03:07:00;12.39;89.90
67868;SHT31;54672;46.096;14.470;2023-10-09T03:09:26;12.36;89.97
67868;SHT31;54672;46.096;14.470;2023-10-09T03:11:59;12.29;90.12
67868;SHT31;54672;46.096;14.470;2023-10-09T03:14:28;12.24;90.47
67868;SHT31;54672;46.096;14.470;2023-10-09T03:16:54;12.20;90.65
67868;SHT31;54672;46.096;14.470;2023-10-09T03:19:21;12.17;90.98
67868;SHT31;54672;46.096;14.470;2023-10-09T03:21:47;12.11;91.12
67868;SHT31;54672;46.096;14.470;2023-10-09T03:24:12;12.08;91.14
67868;SHT31;54672;46.096;14.470;2023-10-09T03:26:38;12.10;91.24
67868;SHT31;54672;46.096;14.470;2023-10-09T03:29:04;12.07;91.32
67868;SHT31;54672;46.096;14.470;2023-10-09T03:31:36;12.05;91.48
67868;SHT31;54672;46.096;14.470;2023-10-09T03:34:02;12.08;91.59
67868;SHT31;54672;46.096;14.470;2023-10-09T03:36:28;12.10;91.71
67868;SHT31;54672;46.096;14.470;2023-10-09T03:38:59;12.11;91.68
67868;SHT31;54672;46.096;14.470;2023-10-09T03:41:25;12.11;91.74
67868;SHT31;54672;46.096;14.470;2023-10-09T03:43:53;12.13;91.59
67868;SHT31;54672;46.096;14.470;2023-10-09T03:46:21;12.13;91.41
67868;SHT31;54672;46.096;14.470;2023-10-09T03:48:51;12.07;91.48
67868;SHT31;54672;46.096;14.470;2023-10-09T03:51:18;12.05;91.56
67868;SHT31;54672;46.096;14.470;2023-10-09T03:53:50;12.04;91.85
67868;SHT31;54672;46.096;14.470;2023-10-09T03:56:16;12.04;91.75
67868;SHT31;54672;46.096;14.470;2023-10-09T03:58:44;12.02;91.88
67868;SHT31;54672;46.096;14.470;2023-10-09T04:01:18;11.95;91.94
67868;SHT31;54672;46.096;14.470;2023-10-09T04:03:57;11.94;92.13
67868;SHT31;54672;46.096;14.470;2023-10-09T04:06:26;11.90;92.18
67868;SHT31;54672;46.096;14.470;2023-10-09T04:08:56;11.91;92.39
67868;SHT31;54672;46.096;14.470;2023-10-09T04:11:24;11.87;92.32
67868;SHT31;54672;46.096;14.470;2023-10-09T04:13:50;11.81;92.35
67868;SHT31;54672;46.096;14.470;2023-10-09T04:16:18;11.83;92.52
67868;SHT31;54672;46.096;14.470;2023-10-09T04:19:00;11.81;92.67
67868;SHT31;54672;46.096;14.470;2023-10-09T04:21:32;11.77;92.75
67868;SHT31;54672;46.096;14.470;2023-10-09T04:24:05;11.76;92.77
67868;SHT31;54672;46.096;14.470;2023-10-09T04:26:40;11.73;92.94
67868;SHT31;54672;46.096;14.470;2023-10-09T04:29:18;11.73;93.00
67868;SHT31;54672;46.096;14.470;2023-10-09T04:31:54;11.70;93.04
67868;SHT31;54672;46.096;14.470;2023-10-09T04:34:25;11.67;93.19
67868;SHT31;54672;46.096;14.470;2023-10-09T04:36:53;11.70;93.54
67868;SHT31;54672;46.096;14.470;2023-10-09T04:39:37;11.66;93.35
67868;SHT31;54672;46.096;14.470;2023-10-09T04:42:03;11.69;93.60
67868;SHT31;54672;46.096;14.470;2023-10-09T04:44:43;11.70;93.37
67868;SHT31;54672;46.096;14.470;2023-10-09T04:47:35;11.70;93.12
67868;SHT31;54672;46.096;14.470;2023-10-09T04:50:08;11.67;93.04
67868;SHT31;54672;46.096;14.470;2023-10-09T04:52:37;11.63;93.12
67868;SHT31;54672;46.096;14.470;2023-10-09T04:55:04;11.62;93.41
67868;SHT31;54672;46.096;14.470;2023-10-09T04:57:42;11.57;93.43
67868;SHT31;54672;46.096;14.470;2023-10-09T05:00:12;11.53;93.41
67868;SHT31;54672;46.096;14.470;2023-10-09T05:02:51;11.52;93.18
67868;SHT31;54672;46.096;14.470;2023-10-09T05:05:27;11.47;93.12
67868;SHT31;54672;46.096;14.470;2023-10-09T05:08:16;11.42;93.25
67868;SHT31;54672;46.096;14.470;2023-10-09T05:11:05;11.37;93.37
67868;SHT31;54672;46.096;14.470;2023-10-09T05:13:41;11.36;93.35
67868;SHT31;54672;46.096;14.470;2023-10-09T05:16:17;11.33;93.46
67868;SHT31;54672;46.096;14.470;2023-10-09T05:18:47;11.32;93.68
67868;SHT31;54672;46.096;14.470;2023-10-09T05:21:29;11.33;93.61
67868;SHT31;54672;46.096;14.470;2023-10-09T05:23:59;11.32;93.62
67868;SHT31;54672;46.096;14.470;2023-10-09T05:26:44;11.33;93.78
67868;SHT31;54672;46.096;14.470;2023-10-09T05:29:12;11.37;93.71
67868;SHT31;54672;46.096;14.470;2023-10-09T05:31:45;11.37;93.76
67868;SHT31;54672;46.096;14.470;2023-10-09T05:34:21;11.42;93.55
67868;SHT31;54672;46.096;14.470;2023-10-09T05:36:48;11.44;93.71
67868;SHT31;54672;46.096;14.470;2023-10-09T05:39:14;11.43;93.80
67868;SHT31;54672;46.096;14.470;2023-10-09T05:42:06;11.50;93.90
67868;SHT31;54672;46.096;14.470;2023-10-09T05:44:35;11.56;93.74
67868;SHT31;54672;46.096;14.470;2023-10-09T05:47:20;11.60;93.38
67868;SHT31;54672;46.096;14.470;2023-10-09T05:49:54;11.66;93.14
67868;SHT31;54672;46.096;14.470;2023-10-09T05:52:35;11.64;92.59
67868;SHT31;54672;46.096;14.470;2023-10-09T05:55:04;11.69;92.54
67868;SHT31;54672;46.096;14.470;2023-10-09T05:57:48;11.80;92.42
67868;SHT31;54672;46.096;14.470;2023-10-09T06:00:32;11.91;92.20
67868;SHT31;54672;46.096;14.470;2023-10-09T06:03:16;11.90;92.35
67868;SHT31;54672;46.096;14.470;2023-10-09T06:05:54;11.98;92.52
67868;SHT31;54672;46.096;14.470;2023-10-09T06:08:30;12.04;91.88
67868;SHT31;54672;46.096;14.470;2023-10-09T06:11:08;12.11;91.78
67868;SHT31;54672;46.096;14.470;2023-10-09T06:13:53;12.26;91.55
67868;SHT31;54672;46.096;14.470;2023-10-09T06:16:34;12.44;91.07
67868;SHT31;54672;46.096;14.470;2023-10-09T06:19:00;12.52;91.14
67868;SHT31;54672;46.096;14.470;2023-10-09T06:21:46;12.60;90.71
67868;SHT31;54672;46.096;14.470;2023-10-09T06:24:22;12.96;90.05
67868;SHT31;54672;46.096;14.470;2023-10-09T06:27:06;13.28;88.36
67868;SHT31;54672;46.096;14.470;2023-10-09T06:29:31;13.37;87.74
67868;SHT31;54672;46.096;14.470;2023-10-09T06:32:10;13.27;87.89
67868;SHT31;54672;46.096;14.470;2023-10-09T06:34:48;13.58;87.03
67868;SHT31;54672;46.096;14.470;2023-10-09T06:37:41;13.78;85.57
67868;SHT31;54672;46.096;14.470;2023-10-09T06:40:25;14.57;83.11
67868;SHT31;54672;46.096;14.470;2023-10-09T06:43:05;15.49;80.53
67868;SHT31;54672;46.096;14.470;2023-10-09T06:45:45;14.70;81.39
67868;SHT31;54672;46.096;14.470;2023-10-09T06:48:14;14.89;82.20
67868;SHT31;54672;46.096;14.470;2023-10-09T06:51:02;14.77;81.76
67868;SHT31;54672;46.096;14.470;2023-10-09T06:53:46;15.80;78.32
67868;SHT31;54672;46.096;14.470;2023-10-09T06:56:32;16.07;77.47
67868;SHT31;54672;46.096;14.470;2023-10-09T06:58:59;16.00;78.13
67868;SHT31;54672;46.096;14.470;2023-10-09T07:01:29;17.63;73.90
67868;SHT31;54672;46.096;14.470;2023-10-09T07:04:00;18.39;71.38
67868;SHT31;54672;46.096;14.470;2023-10-09T07:06:44;18.65;70.08
67868;SHT31;54672;46.096;14.470;2023-10-09T07:09:09;19.22;68.18
67868;SHT31;54672;46.096;14.470;2023-10-09T07:11:39;18.71;68.67
67868;SHT31;54672;46.096;14.470;2023-10-09T07:16:54;20.25;64.61
67868;SHT31;54672;46.096;14.470;2023-10-09T07:19:27;20.00;65.15
67868;SHT31;54672;46.096;14.470;2023-10-09T07:22:11;20.49;63.88
67868;SHT31;54672;46.096;14.470;2023-10-09T07:25:06;19.74;65.46
67868;SHT31;54672;46.096;14.470;2023-10-09T07:27:52;19.62;66.13
67868;SHT31;54672;46.096;14.470;2023-10-09T07:30:21;19.79;65.46
67868;SHT31;54672;46.096;14.470;2023-10-09T07:33:04;19.41;66.64
67868;SHT31;54672;46.096;14.470;2023-10-09T07:35:36;19.08;67.11
67868;SHT31;54672;46.096;14.470;2023-10-09T07:38:07;18.81;67.39
67868;SHT31;54672;46.096;14.470;2023-10-09T07:40:38;19.28;66.33
67868;SHT31;54672;46.096;14.470;2023-10-09T07:43:41;19.28;66.51
67868;SHT31;54672;46.096;14.470;2023-10-09T07:49:04;19.38;66.16
67868;SHT31;54672;46.096;14.470;2023-10-09T07:51:38;19.39;66.53
67868;SHT31;54672;46.096;14.470;2023-10-09T07:54:04;19.38;66.82
67868;SHT31;54672;46.096;14.470;2023-10-09T07:56:40;19.42;65.89
67868;SHT31;54672;46.096;14.470;2023-10-09T07:59:15;19.31;66.91
67868;SHT31;54672;46.096;14.470;2023-10-09T08:01:44;19.65;65.76
67868;SHT31;54672;46.096;14.470;2023-10-09T08:04:28;19.52;66.61
67868;SHT31;54672;46.096;14.470;2023-10-09T08:07:07;18.73;67.17
67868;SHT31;54672;46.096;14.470;2023-10-09T08:09:34;19.62;65.34
67868;SHT31;54672;46.096;14.470;2023-10-09T08:12:15;20.06;64.89
67868;SHT31;54672;46.096;14.470;2023-10-09T08:14:59;20.16;64.25
67868;SHT31;54672;46.096;14.470;2023-10-09T08:17:48;20.64;62.63
67868;SHT31;54672;46.096;14.470;2023-10-09T08:20:26;20.69;61.94
67868;SHT31;54672;46.096;14.470;2023-10-09T08:22:55;21.07;61.97
67868;SHT31;54672;46.096;14.470;2023-10-09T08:25:25;20.51;62.51
67868;SHT31;54672;46.096;14.470;2023-10-09T08:27:56;20.01;64.52
67868;SHT31;54672;46.096;14.470;2023-10-09T08:30:23;18.80;67.52
67868;SHT31;54672;46.096;14.470;2023-10-09T08:32:52;18.75;69.32
67868;SHT31;54672;46.096;14.470;2023-10-09T08:35:31;17.99;70.67
67868;SHT31;54672;46.096;14.470;2023-10-09T08:38:01;17.85;71.13
67868;SHT31;54672;46.096;14.470;2023-10-09T08:40:38;18.01;72.17
67868;SHT31;54672;46.096;14.470;2023-10-09T08:45:42;18.53;70.40
67868;SHT31;54672;46.096;14.470;2023-10-09T08:48:10;18.71;70.19
67868;SHT31;54672;46.096;14.470;2023-10-09T08:50:48;18.77;70.20
67868;SHT31;54672;46.096;14.470;2023-10-09T08:53:15;18.80;69.45
67868;SHT31;54672;46.096;14.470;2023-10-09T08:55:43;18.16;70.53
67868;SHT31;54672;46.096;14.470;2023-10-09T08:58:09;18.01;71.00
67868;SHT31;54672;46.096;14.470;2023-10-09T09:00:56;18.03;71.69
67868;SHT31;54672;46.096;14.470;2023-10-09T09:03:24;18.26;70.63
67868;SHT31;54672;46.096;14.470;2023-10-09T09:05:58;18.54;70.45
67868;SHT31;54672;46.096;14.470;2023-10-09T09:08:27;18.59;69.94
67868;SHT31;54672;46.096;14.470;2023-10-09T09:11:12;18.78;70.35
67868;SHT31;54672;46.096;14.470;2023-10-09T09:13:41;19.29;69.09
67868;SHT31;54672;46.096;14.470;2023-10-09T09:16:17;19.63;69.28
67868;SHT31;54672;46.096;14.470;2023-10-09T09:18:56;19.45;67.91
67868;SHT31;54672;46.096;14.470;2023-10-09T09:24:14;19.24;67.94
67868;SHT31;54672;46.096;14.470;2023-10-09T09:26:56;18.98;69.39
67868;SHT31;54672;46.096;14.470;2023-10-09T09:29:44;19.22;67.98
67868;SHT31;54672;46.096;14.470;2023-10-09T09:32:30;19.29;68.56
67868;SHT31;54672;46.096;14.470;2023-10-09T09:35:04;19.29;68.16
67868;SHT31;54672;46.096;14.470;2023-10-09T09:37:32;19.32;67.98
67868;SHT31;54672;46.096;14.470;2023-10-09T09:40:15;19.12;68.63
67868;SHT31;54672;46.096;14.470;2023-10-09T09:42:59;19.14;69.33
67868;SHT31;54672;46.096;14.470;2023-10-09T09:45:32;18.34;72.20
67868;SHT31;54672;46.096;14.470;2023-10-09T09:48:00;17.75;73.28
67868;SHT31;54672;46.096;14.470;2023-10-09T09:50:34;18.05;72.45
67868;SHT31;54672;46.096;14.470;2023-10-09T09:53:04;18.64;72.02
67868;SHT31;54672;46.096;14.470;2023-10-09T09:55:34;18.84;70.29
67868;SHT31;54672;46.096;14.470;2023-10-09T09:58:12;19.24;69.83
67868;SHT31;54672;46.096;14.470;2023-10-09T10:00:45;19.28;69.30
67868;SHT31;54672;46.096;14.470;2023-10-09T10:03:35;18.09;72.55
67868;SHT31;54672;46.096;14.470;2023-10-09T10:06:02;18.57;71.01
67868;SHT31;54672;46.096;14.470;2023-10-09T10:08:35;18.32;71.95
67868;SHT31;54672;46.096;14.470;2023-10-09T10:11:05;18.84;70.97
67868;SHT31;54672;46.096;14.470;2023-10-09T10:13:54;19.22;70.23
67868;SHT31;54672;46.096;14.470;2023-10-09T10:16:23;19.56;69.43
67868;SHT31;54672;46.096;14.470;2023-10-09T10:19:03;19.42;69.56
67868;SHT31;54672;46.096;14.470;2023-10-09T10:21:41;19.04;71.18
67868;SHT31;54672;46.096;14.470;2023-10-09T10:27:17;19.26;70.37
67868;SHT31;54672;46.096;14.470;2023-10-09T10:32:55;18.70;73.16
67868;SHT31;54672;46.096;14.470;2023-10-09T10:35:23;18.81;72.76
67868;SHT31;54672;46.096;14.470;2023-10-09T10:38:00;19.43;71.38
67868;SHT31;54672;46.096;14.470;2023-10-09T10:40:40;19.74;70.34
67868;SHT31;54672;46.096;14.470;2023-10-09T10:43:17;19.79;70.19
67868;SHT31;54672;46.096;14.470;2023-10-09T10:46:12;19.94;69.95
67868;SHT31;54672;46.096;14.470;2023-10-09T10:48:41;19.82;70.77
67868;SHT31;54672;46.096;14.470;2023-10-09T10:51:12;19.92;70.52
67868;SHT31;54672;46.096;14.470;2023-10-09T10:54:01;19.22;71.50
67868;SHT31;54672;46.096;14.470;2023-10-09T10:56:46;18.98;73.29
67868;SHT31;54672;46.096;14.470;2023-10-09T10:59:19;19.29;72.40
67868;SHT31;54672;46.096;14.470;2023-10-09T11:01:49;19.67;70.89
67868;SHT31;54672;46.096;14.470;2023-10-09T11:04:27;19.16;72.27
67868;SHT31;54672;46.096;14.470;2023-10-09T11:07:02;18.93;73.22
67868;SHT31;54672;46.096;14.470;2023-10-09T11:09:46;19.45;73.02
67868;SHT31;54672;46.096;14.470;2023-10-09T11:12:25;20.13;70.59
67868;SHT31;54672;46.096;14.470;2023-10-09T11:15:01;19.90;71.70
67868;SHT31;54672;46.096;14.470;2023-10-09T11:17:40;20.16;71.50
67868;SHT31;54672;46.096;14.470;2023-10-09T11:20:06;19.90;70.72
67868;SHT31;54672;46.096;14.470;2023-10-09T11:22:58;19.53;72.71
67868;SHT31;54672;46.096;14.470;2023-10-09T11:25:37;19.35;73.81
67868;SHT31;54672;46.096;14.470;2023-10-09T11:28:18;20.03;71.63
67868;SHT31;54672;46.096;14.470;2023-10-09T11:31:05;19.45;73.00
67868;SHT31;54672;46.096;14.470;2023-10-09T11:33:45;19.76;72.36
67868;SHT31;54672;46.096;14.470;2023-10-09T11:36:11;19.66;72.52
67868;SHT31;54672;46.096;14.470;2023-10-09T11:38:37;19.38;74.19
67868;SHT31;54672;46.096;14.470;2023-10-09T11:41:13;19.21;74.97
67868;SHT31;54672;46.096;14.470;2023-10-09T11:43:52;19.31;74.34
67868;SHT31;54672;46.096;14.470;2023-10-09T11:46:20;19.73;73.51
67868;SHT31;54672;46.096;14.470;2023-10-09T11:49:13;19.36;73.89
67868;SHT31;54672;46.096;14.470;2023-10-09T11:51:45;19.05;75.73
67868;SHT31;54672;46.096;14.470;2023-10-09T11:54:32;19.14;74.78
67868;SHT31;54672;46.096;14.470;2023-10-09T11:56:59;19.36;74.96
67868;SHT31;54672;46.096;14.470;2023-10-09T11:59:28;19.46;74.51
67868;SHT31;54672;46.096;14.470;2023-10-09T12:02:00;19.62;73.97
67868;SHT31;54672;46.096;14.470;2023-10-09T12:04:26;19.59;74.35
67868;SHT31;54672;46.096;14.470;2023-10-09T12:06:56;19.56;74.80
67868;SHT31;54672;46.096;14.470;2023-10-09T12:09:41;19.42;75.02
67868;SHT31;54672;46.096;14.470;2023-10-09T12:12:08;19.61;74.34
67868;SHT31;54672;46.096;14.470;2023-10-09T12:14:36;19.72;73.93
67868;SHT31;54672;46.096;14.470;2023-10-09T12:17:06;20.09;74.30
67868;SHT31;54672;46.096;14.470;2023-10-09T12:19:37;20.03;73.01
67868;SHT31;54672;46.096;14.470;2023-10-09T12:22:05;20.44;73.18
67868;SHT31;54672;46.096;14.470;2023-10-09T12:24:31;20.09;74.23
67868;SHT31;54672;46.096;14.470;2023-10-09T12:26:58;19.73;74.37
67868;SHT31;54672;46.096;14.470;2023-10-09T12:29:24;19.79;75.13
67868;SHT31;54672;46.096;14.470;2023-10-09T12:31:51;19.97;73.84
67868;SHT31;54672;46.096;14.470;2023-10-09T12:34:24;19.89;74.53
67868;SHT31;54672;46.096;14.470;2023-10-09T12:36:57;19.66;74.89
67868;SHT31;54672;46.096;14.470;2023-10-09T12:39:26;19.83;74.98
67868;SHT31;54672;46.096;14.470;2023-10-09T12:42:01;19.80;75.26
67868;SHT31;54672;46.096;14.470;2023-10-09T12:44:35;20.32;74.41
67868;SHT31;54672;46.096;14.470;2023-10-09T12:47:05;20.35;73.61
67868;SHT31;54672;46.096;14.470;2023-10-09T12:49:31;20.24;74.44
67868;SHT31;54672;46.096;14.470;2023-10-09T12:51:57;20.04;75.41
67868;SHT31;54672;46.096;14.470;2023-10-09T12:54:26;20.00;75.65
67868;SHT31;54672;46.096;14.470;2023-10-09T12:56:53;20.07;74.92
67868;SHT31;54672;46.096;14.470;2023-10-09T12:59:18;19.98;75.42
67868;SHT31;54672;46.096;14.470;2023-10-09T13:01:45;20.20;75.26
67868;SHT31;54672;46.096;14.470;2023-10-09T13:04:15;20.52;73.93
67868;SHT31;54672;46.096;14.470;2023-10-09T13:06:44;21.14;72.17
67868;SHT31;54672;46.096;14.470;2023-10-09T13:09:11;20.51;73.39
67868;SHT31;54672;46.096;14.470;2023-10-09T13:11:42;20.24;74.25
67868;SHT31;54672;46.096;14.470;2023-10-09T13:14:08;20.37;74.71
67868;SHT31;54672;46.096;14.470;2023-10-09T13:16:45;20.79;74.20
67868;SHT31;54672;46.096;14.470;2023-10-09T13:19:10;21.40;72.19
67868;SHT31;54672;46.096;14.470;2023-10-09T13:21:36;21.68;71.18
67868;SHT31;54672;46.096;14.470;2023-10-09T13:24:06;21.23;72.06
67868;SHT31;54672;46.096;14.470;2023-10-09T13:26:41;21.07;73.24
67868;SHT31;54672;46.096;14.470;2023-10-09T13:29:10;21.06;73.65
67868;SHT31;54672;46.096;14.470;2023-10-09T13:31:37;21.07;73.45
67868;SHT31;54672;46.096;14.470;2023-10-09T13:34:03;21.13;72.97
67868;SHT31;54672;46.096;14.470;2023-10-09T13:36:32;21.43;72.43
67868;SHT31;54672;46.096;14.470;2023-10-09T13:39:00;21.81;71.47
67868;SHT31;54672;46.096;14.470;2023-10-09T13:41:44;21.44;71.89
67868;SHT31;54672;46.096;14.470;2023-10-09T13:44:09;21.13;73.37
67868;SHT31;54672;46.096;14.470;2023-10-09T13:46:35;21.16;73.12
67868;SHT31;54672;46.096;14.470;2023-10-09T13:49:09;21.44;72.50
67868;SHT31;54672;46.096;14.470;2023-10-09T13:51:42;21.20;73.25
67868;SHT31;54672;46.096;14.470;2023-10-09T13:54:12;21.53;72.38
67868;SHT31;54672;46.096;14.470;2023-10-09T13:56:49;21.64;72.08
67868;SHT31;54672;46.096;14.470;2023-10-09T13:59:19;21.70;72.14
67868;SHT31;54672;46.096;14.470;2023-10-09T14:01:47;21.95;72.06
67868;SHT31;54672;46.096;14.470;2023-10-09T14:04:13;21.82;72.37
67868;SHT31;54672;46.096;14.470;2023-10-09T14:06:43;21.67;72.32
67868;SHT31;54672;46.096;14.470;2023-10-09T14:09:10;21.58;73.30
67868;SHT31;54672;46.096;14.470;2023-10-09T14:11:36;21.68;73.04
67868;SHT31;54672;46.096;14.470;2023-10-09T14:14:06;21.67;72.69
67868;SHT31;54672;46.096;14.470;2023-10-09T14:16:37;21.58;72.40
67868;SHT31;54672;46.096;14.470;2023-10-09T14:19:08;21.18;73.86
67868;SHT31;54672;46.096;14.470;2023-10-09T14:21:38;21.16;73.88
67868;SHT31;54672;46.096;14.470;2023-10-09T14:24:06;21.19;74.11
67868;SHT31;54672;46.096;14.470;2023-10-09T14:26:40;21.10;74.40
67868;SHT31;54672;46.096;14.470;2023-10-09T14:29:06;20.83;74.67
67868;SHT31;54672;46.096;14.470;2023-10-09T14:31:31;20.68;75.29
67868;SHT31;54672;46.096;14.470;2023-10-09T14:34:01;20.79;75.02
67868;SHT31;54672;46.096;14.470;2023-10-09T14:36:27;20.65;75.67
67868;SHT31;54672;46.096;14.470;2023-10-09T14:39:01;20.62;75.86
67868;SHT31;54672;46.096;14.470;2023-10-09T14:41:28;20.64;75.92
67868;SHT31;54672;46.096;14.470;2023-10-09T14:43:58;20.73;75.57
67868;SHT31;54672;46.096;14.470;2023-10-09T14:46:24;20.51;76.28
67868;SHT31;54672;46.096;14.470;2023-10-09T14:48:54;20.59;76.13
67868;SHT31;54672;46.096;14.470;2023-10-09T14:51:23;20.42;76.33
67868;SHT31;54672;46.096;14.470;2023-10-09T14:53:56;20.20;76.57
67868;SHT31;54672;46.096;14.470;2023-10-09T14:56:29;20.34;76.45
67868;SHT31;54672;46.096;14.470;2023-10-09T14:58:59;20.35;76.67
67868;SHT31;54672;46.096;14.470;2023-10-09T15:01:31;20.24;76.87
67868;SHT31;54672;46.096;14.470;2023-10-09T15:03:59;20.18;76.92
67868;SHT31;54672;46.096;14.470;2023-10-09T15:06:28;20.06;77.38
67868;SHT31;54672;46.096;14.470;2023-10-09T15:08:55;20.01;77.55
67868;SHT31;54672;46.096;14.470;2023-10-09T15:11:26;19.93;77.70
67868;SHT31;54672;46.096;14.470;2023-10-09T15:13:54;19.87;78.14
67868;SHT31;54672;46.096;14.470;2023-10-09T15:16:21;19.89;78.20
67868;SHT31;54672;46.096;14.470;2023-10-09T15:18:48;19.89;78.04
67868;SHT31;54672;46.096;14.470;2023-10-09T15:21:19;19.74;78.34
67868;SHT31;54672;46.096;14.470;2023-10-09T15:23:49;19.67;78.82
67868;SHT31;54672;46.096;14.470;2023-10-09T15:26:16;19.63;79.03
67868;SHT31;54672;46.096;14.470;2023-10-09T15:28:42;19.65;78.87
67868;SHT31;54672;46.096;14.470;2023-10-09T15:31:08;19.70;79.11
67868;SHT31;54672;46.096;14.470;2023-10-09T15:33:37;19.66;79.23
67868;SHT31;54672;46.096;14.470;2023-10-09T15:36:15;19.65;79.13
67868;SHT31;54672;46.096;14.470;2023-10-09T15:38:42;19.74;78.55
67868;SHT31;54672;46.096;14.470;2023-10-09T15:41:08;19.69;78.63
67868;SHT31;54672;46.096;14.470;2023-10-09T15:43:35;19.72;78.89
67868;SHT31;54672;46.096;14.470;2023-10-09T15:46:00;19.70;78.90
67868;SHT31;54672;46.096;14.470;2023-10-09T15:48:26;19.65;78.77
67868;SHT31;54672;46.096;14.470;2023-10-09T15:50:52;19.55;79.24
67868;SHT31;54672;46.096;14.470;2023-10-09T15:53:18;19.53;79.48
67868;SHT31;54672;46.096;14.470;2023-10-09T15:55:44;19.51;79.57
67868;SHT31;54672;46.096;14.470;2023-10-09T15:58:10;19.48;79.66
67868;SHT31;54672;46.096;14.470;2023-10-09T16:00:36;19.39;80.08
67868;SHT31;54672;46.096;14.470;2023-10-09T16:03:03;19.33;80.51
67868;SHT31;54672;46.096;14.470;2023-10-09T16:05:29;19.29;80.62
67868;SHT31;54672;46.096;14.470;2023-10-09T16:07:57;19.28;80.82
67868;SHT31;54672;46.096;14.470;2023-10-09T16:10:23;19.18;81.37